createdAt,value
2022-10-19T00:00:15.098Z,102580.69
2022-10-19T00:02:45.589Z,102577.69
2022-10-19T00:05:14.404Z,102582.78
2022-10-19T00:07:42.927Z,102578.25
2022-10-19T00:10:12.451Z,102582.03
2022-10-19T00:12:41.075Z,102577.13
2022-10-19T00:15:10.865Z,102571.22
2022-10-19T00:17:39.287Z,102571.03
2022-10-19T00:20:10.165Z,102579.28
2022-10-19T00:22:39.224Z,102569.72
2022-10-19T00:25:08.998Z,102569.25
2022-10-19T00:27:38.894Z,102566.16
2022-10-19T00:30:08.301Z,102567.56
2022-10-19T00:32:36.834Z,102562.13
2022-10-19T00:35:05.864Z,102558.72
2022-10-19T00:37:36.424Z,102547.19
2022-10-19T00:40:05.979Z,102536.94
2022-10-19T00:42:34.943Z,102534.31
2022-10-19T00:45:13.817Z,102529.63
2022-10-19T00:47:43.897Z,102531.13
2022-10-19T00:50:14.705Z,102522.50
2022-10-19T00:52:44.672Z,102519.00
2022-10-19T00:55:14.200Z,102524.19
2022-10-19T00:57:42.848Z,102517.44
2022-10-19T01:00:14.806Z,102518.28
2022-10-19T01:02:45.230Z,102516.56
2022-10-19T01:05:14.633Z,102525.88
2022-10-19T01:07:44.721Z,102528.66
2022-10-19T01:10:13.946Z,102519.72
2022-10-19T01:13:08.082Z,102508.97
2022-10-19T01:15:42.920Z,102513.06
2022-10-19T01:18:21.747Z,102507.91
2022-10-19T01:21:05.149Z,102508.97
2022-10-19T01:24:03.224Z,102507.63
2022-10-19T01:26:59.095Z,102507.25
2022-10-19T01:29:45.007Z,102510.06
2022-10-19T01:32:23.508Z,102503.88
2022-10-19T01:35:01.178Z,102504.63
2022-10-19T01:37:37.095Z,102495.44
2022-10-19T01:40:13.772Z,102507.84
2022-10-19T01:42:50.588Z,102495.06
2022-10-19T01:45:23.022Z,102496.56
2022-10-19T01:47:56.936Z,102504.25
2022-10-19T01:50:30.375Z,102501.34
2022-10-19T01:53:00.546Z,102506.97
2022-10-19T01:55:31.008Z,102503.69
2022-10-19T01:58:08.427Z,102489.13
2022-10-19T02:00:43.178Z,102495.06
2022-10-19T02:03:18.559Z,102491.22
2022-10-19T02:05:57.497Z,102488.22
2022-10-19T02:08:32.682Z,102484.28
2022-10-19T02:11:02.813Z,102479.00
2022-10-19T02:13:33.296Z,102475.63
2022-10-19T02:16:07.461Z,102474.41
2022-10-19T02:18:42.384Z,102466.06
2022-10-19T02:21:11.006Z,102464.47
2022-10-19T02:23:39.516Z,102460.06
2022-10-19T02:26:08.994Z,102456.41
2022-10-19T02:28:38.634Z,102456.41
2022-10-19T02:31:07.520Z,102454.34
2022-10-19T02:33:39.893Z,102453.97
2022-10-19T02:36:08.915Z,102445.13
2022-10-19T02:38:38.050Z,102438.47
2022-10-19T02:41:12.105Z,102438.47
2022-10-19T02:43:44.062Z,102430.88
2022-10-19T02:46:19.694Z,102422.91
2022-10-19T02:48:52.488Z,102418.75
2022-10-19T02:51:30.842Z,102404.59
2022-10-19T02:54:04.997Z,102401.59
2022-10-19T02:56:34.650Z,102412.69
2022-10-19T02:59:04.764Z,102403.31
2022-10-19T03:01:33.329Z,102399.91
2022-10-19T03:04:03.157Z,102397.00
2022-10-19T03:06:31.625Z,102388.19
2022-10-19T03:09:00.108Z,102384.03
2022-10-19T03:11:28.665Z,102372.72
2022-10-19T03:13:57.113Z,102373.72
2022-10-19T03:16:25.803Z,102370.06
2022-10-19T03:18:54.925Z,102368.28
2022-10-19T03:21:24.840Z,102364.81
2022-10-19T03:23:54.585Z,102362.84
2022-10-19T03:26:23.417Z,102363.50
2022-10-19T03:28:52.942Z,102360.22
2022-10-19T03:31:21.459Z,102371.94
2022-10-19T03:33:50.575Z,102371.94
2022-10-19T03:36:22.889Z,102375.72
2022-10-19T03:38:53.679Z,102371.94
2022-10-19T03:41:23.683Z,102376.53
2022-10-19T03:43:52.680Z,102367.53
2022-10-19T03:46:22.215Z,102359.00
2022-10-19T03:48:51.373Z,102345.19
2022-10-19T03:51:22.170Z,102340.97
2022-10-19T03:53:56.133Z,102330.47
2022-10-19T03:56:27.154Z,102326.53
2022-10-19T03:58:56.369Z,102324.28
2022-10-19T04:01:27.439Z,102323.06
2022-10-19T04:03:57.212Z,102313.00
2022-10-19T04:06:27.533Z,102327.25
2022-10-19T04:08:58.065Z,102330.63
2022-10-19T04:11:30.382Z,102328.41
2022-10-19T04:14:02.530Z,102331.38
2022-10-19T04:16:32.320Z,102337.94
2022-10-19T04:19:01.275Z,102327.03
2022-10-19T04:21:32.145Z,102335.22
2022-10-19T04:24:05.567Z,102336.53
2022-10-19T04:26:34.582Z,102340.91
2022-10-19T04:29:03.356Z,102341.41
2022-10-19T04:31:31.782Z,102337.63
2022-10-19T04:34:00.549Z,102332.63
2022-10-19T04:36:29.101Z,102331.78
2022-10-19T04:38:57.568Z,102322.41
2022-10-19T04:41:28.976Z,102329.72
2022-10-19T04:44:01.143Z,102315.06
2022-10-19T04:46:30.838Z,102313.00
2022-10-19T04:49:00.364Z,102310.94
2022-10-19T04:51:29.236Z,102302.94
2022-10-19T04:53:59.634Z,102294.72
2022-10-19T04:56:32.613Z,102306.38
2022-10-19T04:59:02.133Z,102300.47
2022-10-19T05:01:32.257Z,102292.56
2022-10-19T05:04:02.769Z,102292.97
2022-10-19T05:06:32.809Z,102288.22
2022-10-19T05:09:13.932Z,102287.31
2022-10-19T05:11:43.865Z,102292.38
2022-10-19T05:14:12.773Z,102286.06
2022-10-19T05:16:41.402Z,102291.72
2022-10-19T05:19:14.468Z,102290.38
2022-10-19T05:21:43.051Z,102286.81
2022-10-19T05:24:13.351Z,102277.97
2022-10-19T05:26:43.293Z,102277.13
2022-10-19T05:29:13.785Z,102272.53
2022-10-19T05:31:42.873Z,102268.31
2022-10-19T05:34:11.532Z,102262.03
2022-10-19T05:36:41.254Z,102270.00
2022-10-19T05:39:13.770Z,102262.66
2022-10-19T05:41:44.842Z,102264.53
2022-10-19T05:44:16.978Z,102254.88
2022-10-19T05:46:45.600Z,102246.13
2022-10-19T05:49:15.127Z,102243.16
2022-10-19T05:51:43.729Z,102239.25
2022-10-19T05:54:13.037Z,102244.72
2022-10-19T05:56:43.601Z,102247.81
2022-10-19T05:59:16.309Z,102244.91
2022-10-19T06:01:45.497Z,102235.09
2022-10-19T06:04:15.129Z,102235.66
2022-10-19T06:06:43.989Z,102238.22
2022-10-19T06:09:12.798Z,102234.66
2022-10-19T06:11:44.561Z,102234.44
2022-10-19T06:14:15.607Z,102233.66
2022-10-19T06:16:46.495Z,102238.25
2022-10-19T06:19:16.243Z,102243.31
2022-10-19T06:21:46.586Z,102241.22
2022-10-19T06:24:15.074Z,102240.00
2022-10-19T06:26:44.918Z,102241.28
2022-10-19T06:29:35.633Z,102239.16
2022-10-19T06:32:05.849Z,102241.72
2022-10-19T06:34:34.435Z,102233.72
2022-10-19T06:37:02.936Z,102236.91
2022-10-19T06:39:39.345Z,102240.47
2022-10-19T06:42:09.728Z,102242.22
2022-10-19T06:44:40.198Z,102247.59
2022-10-19T06:47:08.904Z,102235.53
2022-10-19T06:49:39.746Z,102222.69
2022-10-19T06:52:09.398Z,102223.97
2022-10-19T06:54:37.822Z,102206.56
2022-10-19T06:57:08.132Z,102201.97
2022-10-19T06:59:38.138Z,102206.81
2022-10-19T07:02:06.939Z,102203.66
2022-10-19T07:04:35.368Z,102210.19
2022-10-19T07:07:03.910Z,102208.09
2022-10-19T07:09:34.673Z,102198.63
2022-10-19T07:12:04.581Z,102196.16
2022-10-19T07:14:38.633Z,102196.81
2022-10-19T07:17:08.897Z,102196.56
2022-10-19T07:19:37.605Z,102197.06
2022-10-19T07:22:06.227Z,102186.97
2022-10-19T07:24:36.000Z,102183.66
2022-10-19T07:27:04.886Z,102187.88
2022-10-19T07:29:33.677Z,102181.53
2022-10-19T07:32:02.321Z,102184.50
2022-10-19T07:34:33.098Z,102182.59
2022-10-19T07:37:01.773Z,102185.13
2022-10-19T07:39:32.474Z,102181.56
2022-10-19T07:42:01.126Z,102173.16
2022-10-19T07:44:29.532Z,102184.31
2022-10-19T07:46:59.958Z,102189.16
2022-10-19T07:49:28.401Z,102192.31
2022-10-19T07:51:59.133Z,102185.19
2022-10-19T07:54:27.786Z,102184.13
2022-10-19T07:56:56.478Z,102182.69
2022-10-19T07:59:31.082Z,102181.66
2022-10-19T08:02:02.399Z,102177.72
2022-10-19T08:04:56.082Z,102166.00
2022-10-19T08:07:26.674Z,102156.97
2022-10-19T08:09:56.029Z,102163.69
2022-10-19T08:12:24.672Z,102155.72
2022-10-19T08:14:54.864Z,102162.44
2022-10-19T08:17:23.486Z,102166.03
2022-10-19T08:19:51.946Z,102155.75
2022-10-19T08:22:22.282Z,102152.38
2022-10-19T08:24:52.077Z,102147.75
2022-10-19T08:27:20.561Z,102152.41
2022-10-19T08:29:53.418Z,102152.19
2022-10-19T08:32:22.211Z,102145.91
2022-10-19T08:34:50.828Z,102152.00
2022-10-19T08:37:26.316Z,102147.97
2022-10-19T08:40:02.814Z,102144.81
2022-10-19T08:42:42.638Z,102144.41
2022-10-19T08:45:29.749Z,102135.59
2022-10-19T08:48:08.721Z,102126.78
2022-10-19T08:50:43.206Z,102130.97
2022-10-19T08:53:16.675Z,102132.41
2022-10-19T08:56:05.096Z,102120.22
2022-10-19T08:58:50.297Z,102126.31
2022-10-19T09:01:37.548Z,102123.19
2022-10-19T09:04:12.231Z,102121.28
2022-10-19T09:06:53.723Z,102118.34
2022-10-19T09:09:25.345Z,102121.69
2022-10-19T09:11:59.501Z,102131.38
2022-10-19T09:14:33.168Z,102128.63
2022-10-19T09:17:07.670Z,102132.84
2022-10-19T09:19:36.278Z,102136.81
2022-10-19T09:22:12.825Z,102125.47
2022-10-19T09:24:45.029Z,102150.69
2022-10-19T09:27:20.821Z,102124.84
2022-10-19T09:29:55.218Z,102115.16
2022-10-19T09:32:27.958Z,102123.38
2022-10-19T09:35:01.287Z,102110.13
2022-10-19T09:40:00.341Z,102109.25
2022-10-19T09:42:34.822Z,102120.84
2022-10-19T09:45:14.504Z,102110.72
2022-10-19T09:47:47.196Z,102106.13
2022-10-19T09:50:20.289Z,102097.66
2022-10-19T09:52:51.451Z,102098.03
2022-10-19T09:55:27.496Z,102087.50
2022-10-19T09:58:21.643Z,102082.56
2022-10-19T10:00:52.385Z,102077.66
2022-10-19T10:03:26.348Z,102074.38
2022-10-19T10:05:56.945Z,102071.66
2022-10-19T10:08:29.198Z,102059.78
2022-10-19T10:11:11.477Z,102065.63
2022-10-19T10:13:43.771Z,102070.22
2022-10-19T10:16:17.092Z,102083.34
2022-10-19T10:18:57.733Z,102076.19
2022-10-19T10:21:28.832Z,102085.63
2022-10-19T10:24:05.851Z,102089.19
2022-10-19T10:26:40.742Z,102069.94
2022-10-19T10:29:26.457Z,102071.84
2022-10-19T10:31:59.946Z,102073.06
2022-10-19T10:34:49.319Z,102067.28
2022-10-19T10:37:21.861Z,102066.22
2022-10-19T10:39:53.745Z,102071.69
2022-10-19T10:42:30.326Z,102071.56
2022-10-19T10:45:01.737Z,102069.47
2022-10-19T10:47:32.257Z,102085.97
2022-10-19T10:50:05.931Z,102077.84
2022-10-19T10:52:37.235Z,102082.88
2022-10-19T10:55:19.170Z,102081.47
2022-10-19T10:57:52.963Z,102076.59
2022-10-19T11:00:24.178Z,102078.94
2022-10-19T11:02:58.814Z,102068.72
2022-10-19T11:05:29.937Z,102062.97
2022-10-19T11:08:08.548Z,102063.34
2022-10-19T11:10:44.898Z,102058.78
2022-10-19T11:13:19.840Z,102047.47
2022-10-19T11:15:55.072Z,102049.03
2022-10-19T11:18:28.492Z,102027.50
2022-10-19T11:21:06.565Z,102023.03
2022-10-19T11:23:45.413Z,102018.72
2022-10-19T11:26:27.521Z,101995.56
2022-10-19T11:29:11.777Z,101997.75
2022-10-19T11:31:48.292Z,102011.78
2022-10-19T11:34:37.135Z,102007.50
2022-10-19T11:37:15.592Z,102001.13
2022-10-19T11:39:57.709Z,101992.31
2022-10-19T11:42:39.750Z,101984.00
2022-10-19T11:45:19.957Z,101982.41
2022-10-19T11:48:07.186Z,101976.19
2022-10-19T11:50:53.809Z,101982.28
2022-10-19T11:53:39.072Z,101967.34
2022-10-19T11:56:14.486Z,101962.94
2022-10-19T11:58:54.786Z,101952.50
2022-10-19T12:01:37.478Z,101944.00
2022-10-19T12:04:33.312Z,101934.88
2022-10-19T12:07:15.857Z,101920.09
2022-10-19T12:09:53.632Z,101905.78
2022-10-19T12:12:30.809Z,101893.06
2022-10-19T12:15:14.077Z,101881.66
2022-10-19T12:17:46.282Z,101882.34
2022-10-19T12:20:25.944Z,101864.03
2022-10-19T12:22:55.182Z,101863.66
2022-10-19T12:25:24.226Z,101880.72
2022-10-19T12:27:55.382Z,101883.44
2022-10-19T12:30:26.250Z,101873.16
2022-10-19T12:33:02.101Z,101866.47
2022-10-19T12:35:49.247Z,101867.06
2022-10-19T12:38:28.805Z,101845.19
2022-10-19T12:41:06.340Z,101828.91
2022-10-19T12:43:45.005Z,101815.97
2022-10-19T12:46:25.206Z,101826.34
2022-10-19T12:49:23.254Z,101818.25
2022-10-19T12:51:53.999Z,101819.03
2022-10-19T12:54:23.849Z,101816.78
2022-10-19T12:56:55.993Z,101813.38
2022-10-19T12:59:31.438Z,101811.16
2022-10-19T13:02:00.890Z,101809.38
2022-10-19T13:04:31.628Z,101793.34
2022-10-19T13:07:05.017Z,101800.00
2022-10-19T13:09:37.306Z,101805.78
2022-10-19T13:12:29.126Z,101785.84
2022-10-19T13:14:58.768Z,101786.47
2022-10-19T13:17:44.390Z,101769.38
2022-10-19T13:20:51.311Z,101757.34
2022-10-19T13:23:43.765Z,101752.47
2022-10-19T13:26:35.651Z,101764.31
2022-10-19T13:29:04.676Z,101735.16
2022-10-19T13:31:34.293Z,101728.94
2022-10-19T13:34:13.648Z,101710.00
2022-10-19T13:37:01.014Z,101717.22
2022-10-19T13:39:32.154Z,101714.22
2022-10-19T13:42:01.109Z,101698.59
2022-10-19T13:44:35.582Z,101697.22
2022-10-19T13:47:20.232Z,101692.00
2022-10-19T13:50:07.710Z,101689.88
2022-10-19T13:52:53.377Z,101663.94
2022-10-19T13:55:46.562Z,101681.34
2022-10-19T13:58:36.868Z,101669.00
2022-10-19T14:01:30.401Z,101666.25
2022-10-19T14:04:15.118Z,101668.19
2022-10-19T14:06:46.175Z,101653.63
2022-10-19T14:09:38.466Z,101651.56
2022-10-19T14:12:16.510Z,101657.81
2022-10-19T14:14:46.118Z,101652.22
2022-10-19T14:19:51.626Z,101647.56
2022-10-19T14:22:25.737Z,101654.09
2022-10-19T14:25:02.059Z,101645.19
2022-10-19T14:27:33.579Z,101649.81
2022-10-19T14:30:03.733Z,101647.56
2022-10-19T14:32:35.413Z,101634.03
2022-10-19T14:35:07.853Z,101635.50
2022-10-19T14:37:37.996Z,101641.31
2022-10-19T14:40:26.623Z,101635.50
2022-10-19T14:42:59.409Z,101635.44
2022-10-19T14:45:31.080Z,101633.44
2022-10-19T14:48:02.330Z,101628.44
2022-10-19T14:50:48.698Z,101616.72
2022-10-19T14:53:27.083Z,101612.31
2022-10-19T14:56:02.094Z,101610.50
2022-10-19T14:58:39.713Z,101617.94
2022-10-19T15:01:09.257Z,101617.50
2022-10-19T15:03:43.603Z,101609.13
2022-10-19T15:06:20.146Z,101614.91
2022-10-19T15:11:28.298Z,101606.53
2022-10-19T15:14:02.991Z,101590.06
2022-10-19T15:16:34.560Z,101593.19
2022-10-19T15:19:08.553Z,101600.72
2022-10-19T15:21:37.134Z,101606.41
2022-10-19T15:24:17.605Z,101598.38
2022-10-19T15:27:06.622Z,101593.44
2022-10-19T15:29:40.243Z,101607.56
2022-10-19T15:32:18.748Z,101602.63
2022-10-19T15:34:48.894Z,101596.41
2022-10-19T15:37:23.822Z,101598.66
2022-10-19T15:39:53.556Z,101595.19
2022-10-19T15:42:32.917Z,101593.34
2022-10-19T15:45:33.389Z,101583.72
2022-10-19T15:48:25.113Z,101573.19
2022-10-19T15:50:54.150Z,101549.25
2022-10-19T15:53:23.835Z,101546.31
2022-10-19T15:55:52.539Z,101531.66
2022-10-19T15:58:21.856Z,101521.25
2022-10-19T16:00:51.838Z,101510.47
2022-10-19T16:03:21.170Z,101504.84
2022-10-19T16:05:49.773Z,101505.16
2022-10-19T16:08:18.335Z,101495.41
2022-10-19T16:10:46.953Z,101487.91
2022-10-19T16:13:16.745Z,101492.00
2022-10-19T16:15:50.103Z,101499.75
2022-10-19T16:18:26.728Z,101487.66
2022-10-19T16:20:55.338Z,101477.22
2022-10-19T16:23:24.427Z,101484.34
2022-10-19T16:25:54.078Z,101470.69
2022-10-19T16:28:43.269Z,101478.97
2022-10-19T16:31:15.654Z,101483.34
2022-10-19T16:33:49.874Z,101471.44
2022-10-19T16:36:23.333Z,101466.22
2022-10-19T16:38:57.444Z,101457.72
2022-10-19T16:44:16.151Z,101461.75
2022-10-19T16:46:51.182Z,101454.03
2022-10-19T16:49:28.661Z,101443.25
2022-10-19T16:52:03.279Z,101447.06
2022-10-19T16:54:39.822Z,101453.34
2022-10-19T16:57:16.514Z,101449.53
2022-10-19T17:02:28.235Z,101442.72
2022-10-19T17:05:04.669Z,101439.00
2022-10-19T17:07:38.112Z,101437.31
2022-10-19T17:10:11.449Z,101429.28
2022-10-19T17:12:50.518Z,101436.13
2022-10-19T17:15:42.485Z,101421.09
2022-10-19T17:18:22.466Z,101414.19
2022-10-19T17:21:12.235Z,101418.81
2022-10-19T17:23:44.145Z,101408.06
2022-10-19T17:26:13.113Z,101409.19
2022-10-19T17:28:43.513Z,101411.91
2022-10-19T17:31:16.844Z,101408.38
2022-10-19T17:33:49.729Z,101402.44
2022-10-19T17:36:22.814Z,101400.03
2022-10-19T17:38:51.385Z,101399.94
2022-10-19T17:41:22.187Z,101392.19
2022-10-19T17:43:52.799Z,101407.75
2022-10-19T17:46:23.992Z,101402.66
2022-10-19T17:48:52.761Z,101398.94
2022-10-19T17:51:24.945Z,101399.56
2022-10-19T17:53:55.101Z,101396.63
2022-10-19T17:56:25.191Z,101386.88
2022-10-19T17:58:54.301Z,101385.44
2022-10-19T18:01:24.154Z,101374.06
2022-10-19T18:03:58.914Z,101379.66
2022-10-19T18:06:31.570Z,101371.78
2022-10-19T18:09:03.895Z,101361.13
2022-10-19T18:11:37.113Z,101353.28
2022-10-19T18:14:08.031Z,101354.38
2022-10-19T18:16:37.311Z,101367.00
2022-10-19T18:19:07.077Z,101370.78
2022-10-19T18:21:44.872Z,101386.81
2022-10-19T18:24:17.030Z,101375.88
2022-10-19T18:26:48.291Z,101366.63
2022-10-19T18:29:28.620Z,101381.50
2022-10-19T18:32:03.264Z,101388.59
2022-10-19T18:34:41.158Z,101374.03
2022-10-19T18:37:23.837Z,101361.66
2022-10-19T20:11:48.753Z,101330.41
2022-10-19T20:14:18.953Z,101281.91
2022-10-19T20:16:48.069Z,101280.00
2022-10-19T20:19:16.669Z,101278.97
2022-10-19T20:21:45.423Z,101256.03
2022-10-19T20:24:16.394Z,101281.22
2022-10-19T20:26:45.032Z,101261.78
2022-10-19T20:29:15.442Z,101268.69
2022-10-19T20:31:44.108Z,101255.25
2022-10-19T20:34:14.153Z,101256.31
2022-10-19T20:36:45.867Z,101254.13
2022-10-19T20:39:14.445Z,101258.69
2022-10-19T20:41:45.526Z,101260.56
2022-10-19T20:44:16.682Z,101259.59
2022-10-19T20:46:45.880Z,101250.50
2022-10-19T20:49:14.658Z,101254.13
2022-10-19T20:51:45.512Z,101240.59
2022-10-19T20:54:14.535Z,101256.63
2022-10-19T20:56:43.629Z,101234.09
2022-10-19T20:59:16.872Z,101227.09
2022-10-19T21:01:50.480Z,101230.34
2022-10-19T21:04:19.405Z,101233.56
2022-10-19T21:06:49.893Z,101219.06
2022-10-19T21:35:55.028Z,101215.38
2022-10-19T21:38:25.356Z,101210.41
2022-10-19T21:40:58.722Z,101199.34
2022-10-19T21:43:29.003Z,101197.44
2022-10-19T21:45:58.236Z,101188.41
2022-10-19T21:48:30.858Z,101183.56
2022-10-19T21:51:14.524Z,101172.25
2022-10-19T21:53:46.775Z,101182.25
2022-10-19T21:56:17.172Z,101183.09
2022-10-19T21:58:46.948Z,101183.91
2022-10-19T22:01:16.215Z,101189.72
2022-10-19T22:03:46.237Z,101184.88
2022-10-19T22:06:17.289Z,101186.16
2022-10-19T22:08:46.371Z,101176.91
2022-10-19T22:11:15.689Z,101170.94
2022-10-19T22:13:44.312Z,101169.53
2022-10-19T22:16:14.747Z,101182.59
2022-10-19T22:18:44.119Z,101180.22
2022-10-19T22:21:14.500Z,101165.50
2022-10-19T22:23:44.968Z,101171.06
2022-10-19T22:26:15.144Z,101172.50
2022-10-19T22:28:44.382Z,101177.16
2022-10-19T22:31:13.869Z,101178.44
2022-10-19T22:33:42.813Z,101165.63
2022-10-19T22:36:12.994Z,101180.97
2022-10-19T22:38:42.149Z,101176.31
2022-10-19T22:41:55.244Z,101189.84
2022-10-19T22:45:02.867Z,101185.13
2022-10-19T22:47:31.494Z,101181.09
2022-10-19T22:49:59.964Z,101166.81
2022-10-19T22:52:28.532Z,101163.47
2022-10-19T22:54:57.467Z,101158.75
2022-10-19T22:57:26.162Z,101153.97
2022-10-19T22:59:54.610Z,101151.25
2022-10-19T23:02:27.044Z,101152.44
2022-10-19T23:04:56.867Z,101139.59
2022-10-19T23:07:25.617Z,101131.03
2022-10-19T23:09:54.262Z,101116.22
2022-10-19T23:12:25.637Z,101110.97
2022-10-19T23:14:54.357Z,101103.16
2022-10-19T23:17:24.262Z,101101.34
2022-10-19T23:19:52.893Z,101097.47
2022-10-19T23:22:21.373Z,101094.00
2022-10-19T23:24:50.244Z,101104.09
2022-10-19T23:27:18.892Z,101098.06
2022-10-19T23:29:47.473Z,101092.81
2022-10-19T23:32:19.325Z,101092.81
2022-10-19T23:34:49.259Z,101088.91
2022-10-19T23:37:17.883Z,101074.19
2022-10-19T23:39:46.482Z,101077.72
2022-10-19T23:42:15.036Z,101074.78
2022-10-19T23:44:43.590Z,101067.28
2022-10-19T23:47:13.473Z,101065.38
2022-10-19T23:49:42.115Z,101065.88
2022-10-19T23:52:12.068Z,101069.53
2022-10-19T23:54:40.722Z,101069.78
2022-10-19T23:57:11.776Z,101061.94
2022-10-19T23:59:40.454Z,101051.34
